createdAt,value
2018-11-29T17:13:18.583Z,0.4
2018-11-29T17:14:18.526Z,0.8
2018-11-29T17:15:18.487Z,1.1
2018-11-29T17:16:18.554Z,1.3
2018-11-29T17:17:18.517Z,1.4
2018-11-29T17:18:18.509Z,1.3
2018-11-29T17:19:18.507Z,1.2
2018-11-29T17:20:18.589Z,1.1
2018-11-29T17:21:18.511Z,1
2018-11-29T17:22:18.518Z,0.9
2018-11-29T17:23:18.486Z,0.9
2018-11-29T17:24:19.128Z,0.8
2018-11-29T17:25:18.468Z,0.7
2018-11-29T17:26:18.535Z,0.6
2018-11-29T17:27:18.484Z,0.6
2018-11-29T17:28:18.477Z,0.5
2018-11-29T17:29:18.485Z,0.5
2018-11-29T17:30:18.466Z,0.6
2018-11-29T17:31:18.560Z,0.7
2018-11-29T17:32:18.476Z,0.7
2018-11-29T17:33:18.477Z,0.8
2018-11-29T17:34:18.476Z,1.4
2018-11-29T17:35:18.487Z,1.9
2018-11-29T17:36:18.576Z,2.1
2018-11-29T17:37:18.503Z,2.4
2018-11-29T17:38:18.502Z,2.7
2018-11-29T17:39:18.564Z,3.1
2018-11-29T17:40:18.490Z,3.5
2018-11-29T17:41:20.427Z,3.8
2018-11-29T17:42:20.578Z,3.9
2018-11-29T17:43:19.751Z,4
2018-11-29T17:44:20.269Z,4.3
2018-11-29T17:45:20.288Z,4.4
2018-11-29T17:46:20.078Z,4.2
2018-11-29T17:47:20.300Z,4.2
2018-11-29T17:48:20.204Z,4.1
2018-11-29T17:49:20.096Z,4
2018-11-29T17:50:20.506Z,3.8
2018-11-29T17:51:19.648Z,3.4
2018-11-29T17:52:20.241Z,3.5
2018-11-29T17:53:21.181Z,3.8
2018-11-29T17:54:20.217Z,4.3
2018-11-29T17:55:20.207Z,4.6
2018-11-29T17:56:21.214Z,4.8
2018-11-29T17:57:19.763Z,4.9
2018-11-29T17:58:21.016Z,5.3
2018-11-29T17:59:19.980Z,5.3
2018-11-29T18:00:20.169Z,5.4
2018-11-29T18:01:20.816Z,5.4
2018-11-29T18:02:21.341Z,5.3
2018-11-29T18:03:19.726Z,5
2018-11-29T18:04:20.347Z,4.8
2018-11-29T18:05:20.694Z,4.6
2018-11-29T18:06:21.572Z,4.2
2018-11-29T18:07:21.356Z,3.8
2018-11-29T18:08:20.721Z,3.8
2018-11-29T18:09:20.845Z,3.7
2018-11-29T18:10:20.744Z,3.7
2018-11-29T18:11:21.668Z,3.5
2018-11-29T18:12:20.396Z,3.8
2018-11-29T18:13:20.710Z,3.8
2018-11-29T18:14:20.633Z,4
2018-11-29T18:15:20.687Z,4.7
2018-11-29T18:16:20.497Z,5.5
2018-11-29T18:17:20.638Z,6.1
2018-11-29T18:18:21.245Z,6.4
2018-11-29T18:19:19.791Z,7
2018-11-29T18:20:20.646Z,7.4
2018-11-29T18:21:20.540Z,7.7
2018-11-29T18:22:20.586Z,8
2018-11-29T18:23:20.768Z,8.2
2018-11-29T18:24:20.664Z,8.5
2018-11-29T18:25:19.920Z,8.8
2018-11-29T18:26:20.505Z,8.8
2018-11-29T18:27:20.176Z,8.8
2018-11-29T18:28:20.738Z,8.6
2018-11-29T18:29:20.559Z,8.2
2018-11-29T18:30:20.582Z,7.9
2018-11-29T18:31:20.846Z,7.5
2018-11-29T18:32:20.821Z,7.2
2018-11-29T18:33:20.413Z,7.7
2018-11-29T18:34:20.669Z,8.1
2018-11-29T18:36:21.117Z,0.7
2018-11-29T18:37:21.086Z,1.3
2018-11-29T18:38:21.071Z,1.6
2018-11-29T18:39:21.074Z,2
2018-11-29T18:40:21.046Z,2.1
2018-11-29T18:41:21.162Z,2.3
2018-11-29T18:42:21.074Z,2.6
2018-11-29T18:43:21.082Z,2.5
2018-11-29T18:44:21.081Z,2.3
2018-11-29T18:45:21.067Z,2.1
2018-11-29T18:46:21.228Z,2
2018-11-29T18:47:21.063Z,2.3
2018-11-29T18:48:21.138Z,2.5
2018-11-29T18:49:21.040Z,2.4
2018-11-29T18:50:21.127Z,2.4
2018-11-29T18:51:21.028Z,2.4
2018-11-29T18:52:21.056Z,2.9
2018-11-29T18:53:21.042Z,3.4
2018-11-29T18:54:21.051Z,3.9
2018-11-29T18:55:21.162Z,4.5
2018-11-29T18:56:21.035Z,5.2
2018-11-29T18:58:23.114Z,1.4
2018-11-29T18:59:23.162Z,1.9
2018-11-29T19:00:23.156Z,2.5
2018-11-29T19:01:23.091Z,2.6
2018-11-29T19:02:25.151Z,2.6
2018-11-29T19:03:23.117Z,3
2018-11-29T19:04:23.116Z,3.9
2018-11-29T19:05:23.188Z,4.9
2018-11-29T19:06:23.084Z,5.8
2018-11-29T19:07:23.108Z,6.4
2018-11-29T19:08:23.135Z,7.1
2018-11-29T19:09:23.091Z,7.7
2018-11-29T19:10:23.109Z,8.4
2018-11-29T19:11:23.177Z,9.1
2018-11-29T19:12:23.111Z,10.1
2018-11-29T19:13:23.167Z,10.9
2018-11-29T19:14:23.104Z,12.3
2018-11-29T19:15:23.077Z,13.6
2018-11-29T19:16:23.099Z,13.2
2018-11-29T19:17:25.118Z,13.1
2018-11-29T19:18:23.064Z,13.4
2018-11-29T19:19:23.101Z,12.8
2018-11-29T19:20:23.087Z,12.8
2018-11-29T19:21:23.154Z,12.4
2018-11-29T19:22:23.084Z,12.4
2018-11-29T19:23:23.079Z,12.5
2018-11-29T19:24:23.133Z,12.4
2018-11-29T19:25:23.100Z,11.9
2018-11-29T19:26:23.109Z,11.6
2018-11-29T19:27:23.140Z,11.5
2018-11-29T19:28:23.101Z,11.5
2018-11-29T19:29:23.150Z,11.2
2018-11-29T19:30:23.076Z,10.4
2018-11-29T19:31:23.070Z,9.5
2018-11-29T19:32:23.084Z,8.6
2018-11-29T19:33:23.167Z,7.8
2018-11-29T19:34:23.152Z,7
2018-11-29T19:35:23.117Z,6.4
2018-11-29T19:36:23.129Z,5.8
2018-11-29T19:37:23.076Z,5.2
2018-11-29T19:38:23.094Z,4.7
2018-11-29T19:39:23.236Z,4.3
2018-11-29T19:40:23.134Z,3.9
2018-11-29T19:41:23.092Z,3.5
2018-11-29T19:42:23.050Z,3.2
2018-11-29T19:43:23.113Z,2.9
2018-11-29T19:44:23.120Z,2.6
2018-11-29T19:45:23.183Z,2.3
2018-11-29T19:46:23.058Z,2.1
2018-11-29T19:47:23.082Z,1.9
2018-11-29T19:48:23.287Z,1.8
2018-11-29T19:49:23.074Z,2.7
2018-11-29T19:50:23.068Z,4.6
2018-11-29T19:51:23.066Z,6
2018-11-29T19:52:23.046Z,7.1
2018-11-29T19:53:23.134Z,7.9
2018-11-29T19:54:23.058Z,8.3
2018-11-29T19:55:23.057Z,8.5
2018-11-29T19:56:23.090Z,9.1
2018-11-29T19:57:23.108Z,10.7
2018-11-29T19:58:23.039Z,12.4
2018-11-29T19:59:23.048Z,13.3
2018-11-29T20:00:23.129Z,14
2018-11-29T20:01:23.049Z,14.1
2018-11-29T20:02:23.119Z,14.5
2018-11-29T20:03:23.055Z,15
2018-11-29T20:04:23.034Z,15.4
2018-11-29T20:05:23.067Z,15.7
2018-11-29T20:06:23.058Z,15.9
2018-11-29T20:07:23.126Z,16.2
2018-11-29T20:08:23.034Z,16.3
2018-11-29T20:09:23.119Z,16.4
2018-11-29T20:10:23.058Z,16.4
2018-11-29T20:11:23.047Z,16.3
2018-11-29T20:12:23.119Z,16.4
2018-11-29T20:13:23.079Z,16.4
2018-11-29T20:14:23.136Z,16.1
2018-11-29T20:15:23.066Z,16.2
2018-11-29T20:16:23.056Z,15.8
2018-11-29T20:17:23.068Z,15.6
2018-11-29T20:18:23.155Z,15.5
2018-11-29T20:19:23.047Z,15.1
2018-11-29T20:20:23.058Z,13.7
2018-11-29T20:21:23.077Z,12.7
2018-11-29T20:22:23.051Z,12
2018-11-29T20:23:23.148Z,11.4
2018-11-29T20:24:23.072Z,10.6
2018-11-29T20:25:23.071Z,9.7
2018-11-29T20:26:23.047Z,8.9
2018-11-29T20:27:23.137Z,8.3
2018-11-29T20:28:23.044Z,7.7
2018-11-29T20:29:23.107Z,7.1
2018-11-29T20:30:23.035Z,6.8
2018-11-29T20:31:31.410Z,6.4
2018-11-29T20:32:24.555Z,6.1
2018-11-29T20:33:23.061Z,5.7
2018-11-29T20:34:23.054Z,5.4
2018-11-29T20:35:23.485Z,5.1
2018-11-29T20:36:23.022Z,5
2018-11-29T20:37:23.105Z,4.5
2018-11-29T20:38:23.362Z,4.1
2018-11-29T20:39:23.072Z,3.7
2018-11-29T20:40:23.068Z,3.4
2018-11-29T20:41:23.029Z,3
2018-11-29T20:42:23.031Z,2.7
2018-11-29T20:43:23.144Z,2.5
2018-11-29T20:44:23.058Z,2.2
2018-11-29T20:45:23.045Z,2
2018-11-29T20:46:23.060Z,1.8
2018-11-29T20:47:23.226Z,1.9
2018-11-29T20:48:23.081Z,2
2018-11-29T20:49:23.025Z,2
2018-11-29T20:50:23.033Z,2
2018-11-29T20:51:23.026Z,2.1
2018-11-29T20:52:23.055Z,2
2018-11-29T20:53:23.096Z,1.9
2018-11-29T20:54:23.023Z,2
2018-11-29T20:55:23.051Z,2.2
2018-11-29T20:56:23.043Z,2.3
2018-11-29T20:57:23.117Z,2.2
2018-11-29T20:58:23.040Z,2.1
2018-11-29T20:59:23.029Z,1.9
2018-11-29T21:00:23.054Z,1.7
2018-11-29T21:01:23.027Z,1.5
2018-11-29T21:02:23.390Z,1.4
2018-11-29T21:03:23.009Z,1.3
2018-11-29T21:04:23.051Z,1.3
2018-11-29T21:05:23.226Z,1.6
2018-11-29T21:06:23.092Z,1.8
2018-11-29T21:07:23.982Z,1.8
2018-11-29T21:08:23.176Z,1.8
2018-11-29T21:09:23.118Z,1.7
2018-11-29T21:10:23.044Z,1.6
2018-11-29T21:11:25.333Z,1.4
2018-11-29T21:12:23.007Z,1.3
2018-11-29T21:13:25.561Z,1.2
2018-11-29T21:14:23.178Z,1.1
2018-11-29T21:15:23.066Z,1
2018-11-29T21:16:23.036Z,0.9
2018-11-29T21:17:23.125Z,0.8
2018-11-29T21:18:23.077Z,0.7
2018-11-29T21:19:23.115Z,0.6
2018-11-29T21:20:23.130Z,0.8
2018-11-29T21:21:23.086Z,0.8
2018-11-29T21:22:25.123Z,0.7
2018-11-29T21:23:24.555Z,0.6
2018-11-29T21:24:25.222Z,0.6
2018-11-29T21:25:23.041Z,0.5
2018-11-29T21:26:23.075Z,0.5
2018-11-29T21:27:23.284Z,0.4
2018-11-29T21:28:23.810Z,0.4
2018-11-29T21:29:23.009Z,0.4
2018-11-29T21:30:23.278Z,0.3
2018-11-29T21:31:23.021Z,0.3
2018-11-29T21:32:23.094Z,0.3
2018-11-29T21:33:23.326Z,0.2
2018-11-29T21:34:23.862Z,0.2
2018-11-29T21:35:23.011Z,0.2
2018-11-29T21:36:23.003Z,0.4
2018-11-29T21:37:23.261Z,1
2018-11-29T21:38:23.120Z,1.7
2018-11-29T21:39:26.421Z,2.1
2018-11-29T21:40:23.361Z,2.3
2018-11-29T21:41:23.071Z,2.4
2018-11-29T21:42:23.043Z,2.8
2018-11-29T21:43:23.145Z,3.6
2018-11-29T21:44:23.084Z,4.3
2018-11-29T21:45:23.083Z,5
2018-11-29T21:46:23.045Z,5.5
2018-11-29T21:47:24.335Z,5.7
2018-11-29T21:48:23.099Z,5.8
2018-11-29T21:49:23.031Z,6.1
2018-11-29T21:50:23.043Z,5.7
2018-11-29T21:51:23.094Z,5.2
2018-11-29T21:52:23.052Z,4.7
2018-11-29T21:53:23.083Z,4.2
2018-11-29T21:54:23.066Z,3.8
2018-11-29T21:55:23.023Z,3.5
2018-11-29T21:56:23.077Z,3.2
2018-11-29T21:57:23.103Z,3.2
2018-11-29T21:58:26.097Z,3.5
2018-11-29T21:59:23.029Z,4
2018-11-29T22:00:23.084Z,4.7
2018-11-29T22:01:23.137Z,5.3
2018-11-29T22:02:23.076Z,5.7
2018-11-29T22:03:23.051Z,5.8
2018-11-29T22:04:23.047Z,6.2
2018-11-29T22:05:23.064Z,7.9
2018-11-29T22:06:23.169Z,9.7
2018-11-29T22:07:23.043Z,11
2018-11-29T22:08:26.126Z,12.2
2018-11-29T22:09:23.047Z,12.9
2018-11-29T22:10:23.289Z,12.5
2018-11-29T22:11:23.172Z,11.7
2018-11-29T22:12:23.036Z,11.4
2018-11-29T22:13:23.013Z,10.8
2018-11-29T22:14:23.058Z,10.2
2018-11-29T22:15:23.191Z,9.6
2018-11-29T22:16:23.033Z,9
2018-11-29T22:17:23.045Z,8.1
2018-11-29T22:18:23.010Z,7.4
2018-11-29T22:19:23.124Z,7.1
2018-11-29T22:20:23.058Z,6.8
2018-11-29T22:21:23.154Z,6.4
2018-11-29T22:22:23.363Z,6.1
2018-11-29T22:23:23.406Z,5.8
2018-11-29T22:24:24.116Z,5.5
2018-11-29T22:25:23.012Z,5
2018-11-29T22:26:25.377Z,4.6
2018-11-29T22:27:23.712Z,4.4
2018-11-29T22:28:23.619Z,4
2018-11-29T22:29:23.994Z,3.6
2018-11-29T22:30:24.349Z,3.4
2018-11-29T22:31:23.211Z,3.4
2018-11-29T22:32:24.372Z,3.4
2018-11-29T22:33:23.593Z,3.3
2018-11-29T22:34:23.345Z,3
2018-11-29T22:35:24.208Z,2.8
2018-11-29T22:36:24.070Z,2.6
2018-11-29T22:37:25.156Z,2.5
2018-11-29T22:38:22.988Z,2.3
2018-11-29T22:39:23.789Z,2.2
2018-11-29T22:40:26.137Z,2.2
2018-11-29T22:41:24.578Z,2.2
2018-11-29T22:42:24.505Z,2.2
2018-11-29T22:43:24.517Z,2.3
2018-11-29T22:44:23.093Z,2.2
2018-11-29T22:45:24.295Z,2.2
2018-11-29T22:46:25.143Z,2
2018-11-29T22:47:22.938Z,1.8
2018-11-29T22:48:24.860Z,1.6
2018-11-29T22:49:24.682Z,1.5
2018-11-29T22:50:23.876Z,1.4
2018-11-29T22:51:23.156Z,1.3
2018-11-29T22:52:24.437Z,1.2
2018-11-29T22:53:23.207Z,1.1
2018-11-29T22:54:23.663Z,1
2018-11-29T22:55:23.812Z,0.9
2018-11-29T22:56:22.954Z,0.8
2018-11-29T22:57:22.950Z,0.8
2018-11-29T22:58:23.021Z,0.7
2018-11-29T22:59:23.016Z,0.6
2018-11-29T23:00:22.979Z,0.6
2018-11-29T23:01:22.982Z,0.5
2018-11-29T23:02:22.983Z,0.5
2018-11-29T23:03:22.972Z,0.4
2018-11-29T23:04:23.020Z,0.6
2018-11-29T23:05:22.967Z,1
2018-11-29T23:06:22.973Z,1.2
2018-11-29T23:07:22.974Z,1.4
2018-11-29T23:08:22.965Z,1.6
2018-11-29T23:09:23.022Z,1.6
2018-11-29T23:10:23.033Z,1.6
2018-11-29T23:11:22.965Z,1.6
2018-11-29T23:12:22.969Z,1.6
2018-11-29T23:13:22.979Z,1.4
2018-11-29T23:14:22.971Z,1.3
2018-11-29T23:15:23.034Z,1.2
2018-11-29T23:16:23.032Z,1
2018-11-29T23:17:22.981Z,0.9
2018-11-29T23:18:23.019Z,0.9
2018-11-29T23:19:23.024Z,0.8
2018-11-29T23:20:22.961Z,0.7
2018-11-29T23:21:23.042Z,0.6
2018-11-29T23:22:22.958Z,0.6
2018-11-29T23:23:23.027Z,0.5
2018-11-29T23:24:22.967Z,0.5
2018-11-29T23:25:22.968Z,0.6
2018-11-29T23:26:23.022Z,1
2018-11-29T23:27:22.972Z,1.6
2018-11-29T23:28:22.963Z,2.5
2018-11-29T23:29:23.053Z,3.7
2018-11-29T23:30:22.958Z,4.5
2018-11-29T23:31:22.935Z,6.2
2018-11-29T23:32:22.959Z,7.4
2018-11-29T23:33:22.954Z,8.3
2018-11-29T23:34:23.003Z,8.9
2018-11-29T23:35:22.960Z,9.4
2018-11-29T23:36:22.957Z,9.9
2018-11-29T23:37:22.939Z,9.9
2018-11-29T23:38:22.965Z,10
2018-11-29T23:39:23.029Z,10.1
2018-11-29T23:40:22.948Z,11.1
2018-11-29T23:41:23.002Z,12.4
2018-11-29T23:42:23.040Z,13.4
2018-11-29T23:43:22.946Z,14.4
2018-11-29T23:44:22.961Z,15.3
2018-11-29T23:45:22.943Z,16.2
2018-11-29T23:46:22.954Z,17.1
2018-11-29T23:47:22.939Z,18
2018-11-29T23:48:22.943Z,18.7
2018-11-29T23:49:22.957Z,19.1
2018-11-29T23:50:23.029Z,19.6
2018-11-29T23:51:22.972Z,19.5
2018-11-29T23:52:22.948Z,19.7
2018-11-29T23:53:22.937Z,19.9
2018-11-29T23:54:23.011Z,19.9
2018-11-29T23:55:23.063Z,20.1
2018-11-29T23:56:22.959Z,19.9
2018-11-29T23:57:23.017Z,19.8
2018-11-29T23:58:22.924Z,20.8
2018-11-29T23:59:23.007Z,21.9
